sensor_id;sensor_type;location;lat;lon;timestamp;temperature;humidity
27306;DHT22;14792;50.886;6.468;2023-01-09T00:00:30;7.40;99.90
27306;DHT22;14792;50.886;6.468;2023-01-09T00:03:31;7.40;99.90
27306;DHT22;14792;50.886;6.468;2023-01-09T00:06:33;7.40;99.90
27306;DHT22;14792;50.886;6.468;2023-01-09T00:09:35;7.30;99.90
27306;DHT22;14792;50.886;6.468;2023-01-09T00:12:36;7.40;99.90
27306;DHT22;14792;50.886;6.468;2023-01-09T00:15:38;7.40;99.90
27306;DHT22;14792;50.886;6.468;2023-01-09T00:18:39;7.40;99.90
27306;DHT22;14792;50.886;6.468;2023-01-09T00:21:41;7.50;99.90
27306;DHT22;14792;50.886;6.468;2023-01-09T00:24:43;7.60;99.90
27306;DHT22;14792;50.886;6.468;2023-01-09T00:27:44;7.70;99.90
27306;DHT22;14792;50.886;6.468;2023-01-09T00:30:54;7.70;99.90
27306;DHT22;14792;50.886;6.468;2023-01-09T00:33:49;7.70;99.90
27306;DHT22;14792;50.886;6.468;2023-01-09T00:36:49;7.70;99.90
27306;DHT22;14792;50.886;6.468;2023-01-09T00:39:50;7.70;99.90
27306;DHT22;14792;50.886;6.468;2023-01-09T00:42:53;7.60;99.90
27306;DHT22;14792;50.886;6.468;2023-01-09T00:45:54;7.60;99.90
27306;DHT22;14792;50.886;6.468;2023-01-09T00:48:55;7.60;99.90
27306;DHT22;14792;50.886;6.468;2023-01-09T00:51:57;7.60;99.90
27306;DHT22;14792;50.886;6.468;2023-01-09T00:54:58;7.50;99.90
27306;DHT22;14792;50.886;6.468;2023-01-09T00:58:00;7.50;99.90
27306;DHT22;14792;50.886;6.468;2023-01-09T01:01:02;7.40;99.90
27306;DHT22;14792;50.886;6.468;2023-01-09T01:04:03;7.40;99.90
27306;DHT22;14792;50.886;6.468;2023-01-09T01:07:05;7.40;99.90
27306;DHT22;14792;50.886;6.468;2023-01-09T01:10:25;7.40;99.90
27306;DHT22;14792;50.886;6.468;2023-01-09T01:13:26;7.30;99.90
27306;DHT22;14792;50.886;6.468;2023-01-09T01:16:27;7.30;99.90
27306;DHT22;14792;50.886;6.468;2023-01-09T01:19:29;7.30;99.90
27306;DHT22;14792;50.886;6.468;2023-01-09T01:22:30;7.30;99.90
27306;DHT22;14792;50.886;6.468;2023-01-09T01:25:34;7.30;99.90
27306;DHT22;14792;50.886;6.468;2023-01-09T01:28:34;7.30;99.90
27306;DHT22;14792;50.886;6.468;2023-01-09T01:31:35;7.20;99.90
27306;DHT22;14792;50.886;6.468;2023-01-09T01:34:37;7.20;99.90
27306;DHT22;14792;50.886;6.468;2023-01-09T01:37:39;7.20;99.90
27306;DHT22;14792;50.886;6.468;2023-01-09T01:40:40;7.20;99.90
27306;DHT22;14792;50.886;6.468;2023-01-09T01:43:52;7.20;99.90
27306;DHT22;14792;50.886;6.468;2023-01-09T01:46:52;7.20;99.90
27306;DHT22;14792;50.886;6.468;2023-01-09T01:49:54;7.10;99.90
27306;DHT22;14792;50.886;6.468;2023-01-09T01:52:58;7.20;99.90
27306;DHT22;14792;50.886;6.468;2023-01-09T01:56:19;7.20;99.90
27306;DHT22;14792;50.886;6.468;2023-01-09T01:59:27;7.20;99.90
27306;DHT22;14792;50.886;6.468;2023-01-09T02:02:27;7.30;99.90
27306;DHT22;14792;50.886;6.468;2023-01-09T02:05:28;7.40;99.90
27306;DHT22;14792;50.886;6.468;2023-01-09T02:08:30;7.40;99.90
27306;DHT22;14792;50.886;6.468;2023-01-09T02:11:31;7.40;99.90
27306;DHT22;14792;50.886;6.468;2023-01-09T02:14:33;7.40;99.90
27306;DHT22;14792;50.886;6.468;2023-01-09T02:21:03;7.20;99.90
27306;DHT22;14792;50.886;6.468;2023-01-09T02:27:16;7.20;99.90
27306;DHT22;14792;50.886;6.468;2023-01-09T02:30:23;7.30;99.90
27306;DHT22;14792;50.886;6.468;2023-01-09T02:39:54;7.20;99.90
27306;DHT22;14792;50.886;6.468;2023-01-09T02:42:52;7.30;99.90
27306;DHT22;14792;50.886;6.468;2023-01-09T02:45:54;7.20;99.90
27306;DHT22;14792;50.886;6.468;2023-01-09T02:48:56;7.20;99.90
27306;DHT22;14792;50.886;6.468;2023-01-09T03:08:24;7.00;99.90
27306;DHT22;14792;50.886;6.468;2023-01-09T03:11:24;7.00;99.90
27306;DHT22;14792;50.886;6.468;2023-01-09T03:14:26;7.00;99.90
27306;DHT22;14792;50.886;6.468;2023-01-09T03:17:36;7.00;99.90
27306;DHT22;14792;50.886;6.468;2023-01-09T03:20:34;6.90;99.90
27306;DHT22;14792;50.886;6.468;2023-01-09T03:23:58;6.90;99.90
27306;DHT22;14792;50.886;6.468;2023-01-09T03:26:59;6.80;99.90
27306;DHT22;14792;50.886;6.468;2023-01-09T03:30:00;6.80;99.90
27306;DHT22;14792;50.886;6.468;2023-01-09T03:33:02;6.70;99.90
27306;DHT22;14792;50.886;6.468;2023-01-09T03:36:03;6.70;99.90
27306;DHT22;14792;50.886;6.468;2023-01-09T03:39:05;6.70;99.90
27306;DHT22;14792;50.886;6.468;2023-01-09T03:42:06;6.60;99.90
27306;DHT22;14792;50.886;6.468;2023-01-09T03:45:08;6.60;99.90
27306;DHT22;14792;50.886;6.468;2023-01-09T03:48:10;6.50;99.90
27306;DHT22;14792;50.886;6.468;2023-01-09T03:51:11;6.50;99.90
27306;DHT22;14792;50.886;6.468;2023-01-09T03:54:13;6.40;99.90
27306;DHT22;14792;50.886;6.468;2023-01-09T03:57:14;6.30;99.90
27306;DHT22;14792;50.886;6.468;2023-01-09T04:00:16;6.30;99.90
27306;DHT22;14792;50.886;6.468;2023-01-09T04:03:18;6.30;99.90
27306;DHT22;14792;50.886;6.468;2023-01-09T04:06:19;6.30;99.90
27306;DHT22;14792;50.886;6.468;2023-01-09T04:09:21;6.30;99.90
27306;DHT22;14792;50.886;6.468;2023-01-09T04:12:22;6.30;99.90
27306;DHT22;14792;50.886;6.468;2023-01-09T04:15:24;6.20;99.90
27306;DHT22;14792;50.886;6.468;2023-01-09T04:18:25;6.30;99.90
27306;DHT22;14792;50.886;6.468;2023-01-09T04:21:27;6.30;99.90
27306;DHT22;14792;50.886;6.468;2023-01-09T04:24:29;6.30;99.90
27306;DHT22;14792;50.886;6.468;2023-01-09T04:27:30;6.30;99.90
27306;DHT22;14792;50.886;6.468;2023-01-09T04:30:32;6.40;99.90
27306;DHT22;14792;50.886;6.468;2023-01-09T04:33:33;6.50;99.90
27306;DHT22;14792;50.886;6.468;2023-01-09T04:36:35;6.60;99.90
27306;DHT22;14792;50.886;6.468;2023-01-09T04:39:37;6.70;99.90
27306;DHT22;14792;50.886;6.468;2023-01-09T04:42:38;6.80;99.90
27306;DHT22;14792;50.886;6.468;2023-01-09T04:45:40;6.80;99.90
27306;DHT22;14792;50.886;6.468;2023-01-09T04:48:41;6.80;99.90
27306;DHT22;14792;50.886;6.468;2023-01-09T04:51:43;6.90;99.90
27306;DHT22;14792;50.886;6.468;2023-01-09T04:54:45;6.90;99.90
27306;DHT22;14792;50.886;6.468;2023-01-09T04:57:46;6.90;99.90
27306;DHT22;14792;50.886;6.468;2023-01-09T05:00:48;6.90;99.90
27306;DHT22;14792;50.886;6.468;2023-01-09T05:03:49;6.80;99.90
27306;DHT22;14792;50.886;6.468;2023-01-09T05:06:51;6.90;99.90
27306;DHT22;14792;50.886;6.468;2023-01-09T05:09:52;6.90;99.90
27306;DHT22;14792;50.886;6.468;2023-01-09T05:12:54;7.00;99.90
27306;DHT22;14792;50.886;6.468;2023-01-09T05:15:56;7.00;99.90
27306;DHT22;14792;50.886;6.468;2023-01-09T05:18:57;7.00;99.90
27306;DHT22;14792;50.886;6.468;2023-01-09T05:21:59;7.10;99.90
27306;DHT22;14792;50.886;6.468;2023-01-09T05:25:00;7.10;99.90
27306;DHT22;14792;50.886;6.468;2023-01-09T05:28:02;7.10;99.90
27306;DHT22;14792;50.886;6.468;2023-01-09T05:31:04;7.20;99.90
27306;DHT22;14792;50.886;6.468;2023-01-09T05:34:05;7.20;99.90
27306;DHT22;14792;50.886;6.468;2023-01-09T05:37:07;7.20;99.90
27306;DHT22;14792;50.886;6.468;2023-01-09T05:40:08;7.20;99.90
27306;DHT22;14792;50.886;6.468;2023-01-09T05:43:11;7.20;99.90
27306;DHT22;14792;50.886;6.468;2023-01-09T05:46:12;7.20;99.90
27306;DHT22;14792;50.886;6.468;2023-01-09T05:49:13;7.30;99.90
27306;DHT22;14792;50.886;6.468;2023-01-09T05:52:15;7.30;99.90
27306;DHT22;14792;50.886;6.468;2023-01-09T05:55:16;7.40;99.90
27306;DHT22;14792;50.886;6.468;2023-01-09T05:58:18;7.40;99.90
27306;DHT22;14792;50.886;6.468;2023-01-09T06:01:19;7.30;99.90
27306;DHT22;14792;50.886;6.468;2023-01-09T06:04:21;7.40;99.90
27306;DHT22;14792;50.886;6.468;2023-01-09T06:07:23;7.40;99.90
27306;DHT22;14792;50.886;6.468;2023-01-09T06:10:24;7.40;99.90
27306;DHT22;14792;50.886;6.468;2023-01-09T06:13:26;7.40;99.90
27306;DHT22;14792;50.886;6.468;2023-01-09T06:16:27;7.40;99.90
27306;DHT22;14792;50.886;6.468;2023-01-09T06:19:29;7.40;99.90
27306;DHT22;14792;50.886;6.468;2023-01-09T06:22:31;7.40;99.90
27306;DHT22;14792;50.886;6.468;2023-01-09T06:25:32;7.40;99.90
27306;DHT22;14792;50.886;6.468;2023-01-09T06:28:34;7.40;99.90
27306;DHT22;14792;50.886;6.468;2023-01-09T06:31:35;7.50;99.90
27306;DHT22;14792;50.886;6.468;2023-01-09T06:34:37;7.50;99.90
27306;DHT22;14792;50.886;6.468;2023-01-09T06:37:38;7.50;99.90
27306;DHT22;14792;50.886;6.468;2023-01-09T06:40:40;7.50;99.90
27306;DHT22;14792;50.886;6.468;2023-01-09T06:43:42;7.50;99.90
27306;DHT22;14792;50.886;6.468;2023-01-09T06:46:43;7.50;99.90
27306;DHT22;14792;50.886;6.468;2023-01-09T06:49:45;7.50;99.90
27306;DHT22;14792;50.886;6.468;2023-01-09T06:52:46;7.50;99.90
27306;DHT22;14792;50.886;6.468;2023-01-09T06:55:48;7.50;99.90
27306;DHT22;14792;50.886;6.468;2023-01-09T06:58:50;7.60;99.90
27306;DHT22;14792;50.886;6.468;2023-01-09T07:01:51;7.60;99.90
27306;DHT22;14792;50.886;6.468;2023-01-09T07:04:53;7.60;99.90
27306;DHT22;14792;50.886;6.468;2023-01-09T07:07:54;7.60;99.90
27306;DHT22;14792;50.886;6.468;2023-01-09T07:10:56;7.60;99.90
27306;DHT22;14792;50.886;6.468;2023-01-09T07:13:57;7.60;99.90
27306;DHT22;14792;50.886;6.468;2023-01-09T07:16:59;7.60;99.90
27306;DHT22;14792;50.886;6.468;2023-01-09T07:20:01;7.70;99.90
27306;DHT22;14792;50.886;6.468;2023-01-09T07:23:02;7.70;99.90
27306;DHT22;14792;50.886;6.468;2023-01-09T07:26:04;7.80;99.90
27306;DHT22;14792;50.886;6.468;2023-01-09T07:29:05;7.80;99.90
27306;DHT22;14792;50.886;6.468;2023-01-09T07:32:07;7.80;99.90
27306;DHT22;14792;50.886;6.468;2023-01-09T07:35:09;7.80;99.90
27306;DHT22;14792;50.886;6.468;2023-01-09T07:38:10;7.80;99.90
27306;DHT22;14792;50.886;6.468;2023-01-09T07:41:12;7.80;99.90
27306;DHT22;14792;50.886;6.468;2023-01-09T07:44:13;7.80;99.90
27306;DHT22;14792;50.886;6.468;2023-01-09T07:47:15;7.80;99.90
27306;DHT22;14792;50.886;6.468;2023-01-09T07:50:17;7.80;99.90
27306;DHT22;14792;50.886;6.468;2023-01-09T07:53:18;7.80;99.90
27306;DHT22;14792;50.886;6.468;2023-01-09T07:56:20;7.90;99.90
27306;DHT22;14792;50.886;6.468;2023-01-09T07:59:21;7.90;99.90
27306;DHT22;14792;50.886;6.468;2023-01-09T08:02:23;7.90;99.90
27306;DHT22;14792;50.886;6.468;2023-01-09T08:05:24;7.90;99.90
27306;DHT22;14792;50.886;6.468;2023-01-09T08:08:26;7.90;99.90
27306;DHT22;14792;50.886;6.468;2023-01-09T08:11:28;7.90;99.90
27306;DHT22;14792;50.886;6.468;2023-01-09T08:14:30;7.90;99.90
27306;DHT22;14792;50.886;6.468;2023-01-09T08:17:31;7.90;99.90
27306;DHT22;14792;50.886;6.468;2023-01-09T08:20:32;7.90;99.90
27306;DHT22;14792;50.886;6.468;2023-01-09T08:23:34;7.90;99.90
27306;DHT22;14792;50.886;6.468;2023-01-09T08:26:36;7.90;99.90
27306;DHT22;14792;50.886;6.468;2023-01-09T08:29:37;7.90;99.90
27306;DHT22;14792;50.886;6.468;2023-01-09T08:32:39;7.90;99.90
27306;DHT22;14792;50.886;6.468;2023-01-09T08:35:41;7.90;99.90
27306;DHT22;14792;50.886;6.468;2023-01-09T08:38:42;8.00;99.90
27306;DHT22;14792;50.886;6.468;2023-01-09T08:41:44;8.00;99.90
27306;DHT22;14792;50.886;6.468;2023-01-09T08:45:03;7.90;99.90
27306;DHT22;14792;50.886;6.468;2023-01-09T08:48:22;8.00;99.90
27306;DHT22;14792;50.886;6.468;2023-01-09T08:51:24;7.90;99.90
27306;DHT22;14792;50.886;6.468;2023-01-09T08:54:26;7.90;99.90
27306;DHT22;14792;50.886;6.468;2023-01-09T08:57:27;7.90;99.90
27306;DHT22;14792;50.886;6.468;2023-01-09T09:00:29;7.90;99.90
27306;DHT22;14792;50.886;6.468;2023-01-09T09:03:30;8.00;99.90
27306;DHT22;14792;50.886;6.468;2023-01-09T09:06:32;8.00;99.90
27306;DHT22;14792;50.886;6.468;2023-01-09T09:09:33;8.00;99.90
27306;DHT22;14792;50.886;6.468;2023-01-09T09:12:35;8.00;99.90
27306;DHT22;14792;50.886;6.468;2023-01-09T09:15:37;8.00;99.90
27306;DHT22;14792;50.886;6.468;2023-01-09T09:18:38;8.00;99.90
27306;DHT22;14792;50.886;6.468;2023-01-09T09:21:40;8.00;99.90
27306;DHT22;14792;50.886;6.468;2023-01-09T09:24:41;8.00;99.90
27306;DHT22;14792;50.886;6.468;2023-01-09T09:27:43;8.00;99.90
27306;DHT22;14792;50.886;6.468;2023-01-09T09:30:45;8.00;99.90
27306;DHT22;14792;50.886;6.468;2023-01-09T09:33:46;8.10;99.90
27306;DHT22;14792;50.886;6.468;2023-01-09T09:36:48;8.00;99.90
27306;DHT22;14792;50.886;6.468;2023-01-09T09:39:49;8.10;99.90
27306;DHT22;14792;50.886;6.468;2023-01-09T09:46:31;8.10;99.90
27306;DHT22;14792;50.886;6.468;2023-01-09T09:49:43;8.20;99.90
27306;DHT22;14792;50.886;6.468;2023-01-09T09:55:47;8.20;99.90
27306;DHT22;14792;50.886;6.468;2023-01-09T09:58:59;8.20;99.90
27306;DHT22;14792;50.886;6.468;2023-01-09T10:05:11;8.20;99.90
27306;DHT22;14792;50.886;6.468;2023-01-09T10:08:17;8.10;99.90
27306;DHT22;14792;50.886;6.468;2023-01-09T10:14:44;8.10;99.90
27306;DHT22;14792;50.886;6.468;2023-01-09T10:24:03;8.10;99.90
27306;DHT22;14792;50.886;6.468;2023-01-09T10:27:06;8.20;99.90
27306;DHT22;14792;50.886;6.468;2023-01-09T10:39:36;8.30;99.90
27306;DHT22;14792;50.886;6.468;2023-01-09T10:45:46;8.30;99.90
27306;DHT22;14792;50.886;6.468;2023-01-09T10:48:48;8.30;99.90
27306;DHT22;14792;50.886;6.468;2023-01-09T10:51:59;8.30;99.90
27306;DHT22;14792;50.886;6.468;2023-01-09T10:55:00;8.20;99.90
27306;DHT22;14792;50.886;6.468;2023-01-09T10:58:00;8.20;99.90
27306;DHT22;14792;50.886;6.468;2023-01-09T11:00:59;8.20;99.90
27306;DHT22;14792;50.886;6.468;2023-01-09T11:04:01;8.20;99.90
27306;DHT22;14792;50.886;6.468;2023-01-09T11:07:14;8.30;99.90
27306;DHT22;14792;50.886;6.468;2023-01-09T11:10:14;8.30;99.90
27306;DHT22;14792;50.886;6.468;2023-01-09T11:16:20;8.40;99.90
27306;DHT22;14792;50.886;6.468;2023-01-09T11:19:22;8.30;99.90
27306;DHT22;14792;50.886;6.468;2023-01-09T11:22:23;8.30;99.90
27306;DHT22;14792;50.886;6.468;2023-01-09T11:25:28;8.20;99.90
27306;DHT22;14792;50.886;6.468;2023-01-09T11:28:29;8.10;99.90
27306;DHT22;14792;50.886;6.468;2023-01-09T11:31:31;8.00;99.90
27306;DHT22;14792;50.886;6.468;2023-01-09T11:34:33;8.00;99.90
27306;DHT22;14792;50.886;6.468;2023-01-09T11:37:34;8.10;99.90
27306;DHT22;14792;50.886;6.468;2023-01-09T11:40:54;8.20;99.90
27306;DHT22;14792;50.886;6.468;2023-01-09T11:43:55;8.10;99.90
27306;DHT22;14792;50.886;6.468;2023-01-09T11:46:56;8.20;99.90
27306;DHT22;14792;50.886;6.468;2023-01-09T11:50:07;8.10;99.90
27306;DHT22;14792;50.886;6.468;2023-01-09T11:53:15;8.10;99.90
27306;DHT22;14792;50.886;6.468;2023-01-09T11:56:16;8.10;99.90
27306;DHT22;14792;50.886;6.468;2023-01-09T11:59:18;8.10;99.90
27306;DHT22;14792;50.886;6.468;2023-01-09T12:02:47;8.30;99.90
27306;DHT22;14792;50.886;6.468;2023-01-09T12:05:51;8.20;99.90
27306;DHT22;14792;50.886;6.468;2023-01-09T12:09:02;8.20;99.90
27306;DHT22;14792;50.886;6.468;2023-01-09T12:12:12;8.20;99.90
27306;DHT22;14792;50.886;6.468;2023-01-09T12:15:20;8.10;99.90
27306;DHT22;14792;50.886;6.468;2023-01-09T12:21:32;8.10;99.90
27306;DHT22;14792;50.886;6.468;2023-01-09T12:28:16;8.10;99.90
27306;DHT22;14792;50.886;6.468;2023-01-09T12:31:21;8.10;99.90
27306;DHT22;14792;50.886;6.468;2023-01-09T12:34:45;8.10;99.90
27306;DHT22;14792;50.886;6.468;2023-01-09T12:44:40;8.10;99.90
27306;DHT22;14792;50.886;6.468;2023-01-09T12:47:50;8.10;99.90
27306;DHT22;14792;50.886;6.468;2023-01-09T12:50:52;8.20;99.90
27306;DHT22;14792;50.886;6.468;2023-01-09T12:53:58;8.20;99.90
27306;DHT22;14792;50.886;6.468;2023-01-09T12:57:02;8.20;99.90
27306;DHT22;14792;50.886;6.468;2023-01-09T13:03:39;8.20;99.90
27306;DHT22;14792;50.886;6.468;2023-01-09T13:06:41;8.20;99.90
27306;DHT22;14792;50.886;6.468;2023-01-09T13:09:46;8.20;99.90
27306;DHT22;14792;50.886;6.468;2023-01-09T13:12:45;8.20;99.90
27306;DHT22;14792;50.886;6.468;2023-01-09T13:15:47;8.20;99.90
27306;DHT22;14792;50.886;6.468;2023-01-09T13:18:52;8.30;99.90
27306;DHT22;14792;50.886;6.468;2023-01-09T13:21:52;8.30;99.90
27306;DHT22;14792;50.886;6.468;2023-01-09T13:25:31;8.20;99.90
27306;DHT22;14792;50.886;6.468;2023-01-09T13:28:41;8.20;99.90
27306;DHT22;14792;50.886;6.468;2023-01-09T13:35:02;8.10;99.90
27306;DHT22;14792;50.886;6.468;2023-01-09T13:38:03;8.10;99.90
27306;DHT22;14792;50.886;6.468;2023-01-09T13:41:13;8.10;99.90
27306;DHT22;14792;50.886;6.468;2023-01-09T13:44:30;8.10;99.90
27306;DHT22;14792;50.886;6.468;2023-01-09T13:47:32;8.10;99.90
27306;DHT22;14792;50.886;6.468;2023-01-09T13:50:34;8.20;99.90
27306;DHT22;14792;50.886;6.468;2023-01-09T14:03:38;8.00;99.90
27306;DHT22;14792;50.886;6.468;2023-01-09T14:06:39;8.00;99.90
27306;DHT22;14792;50.886;6.468;2023-01-09T14:09:44;8.00;99.90
27306;DHT22;14792;50.886;6.468;2023-01-09T14:12:42;7.90;99.90
27306;DHT22;14792;50.886;6.468;2023-01-09T14:15:44;7.90;99.90
27306;DHT22;14792;50.886;6.468;2023-01-09T14:18:49;7.90;99.90
27306;DHT22;14792;50.886;6.468;2023-01-09T14:21:51;7.90;99.90
27306;DHT22;14792;50.886;6.468;2023-01-09T14:24:51;8.00;99.90
27306;DHT22;14792;50.886;6.468;2023-01-09T14:34:24;8.00;99.90
27306;DHT22;14792;50.886;6.468;2023-01-09T14:37:30;8.00;99.90
27306;DHT22;14792;50.886;6.468;2023-01-09T14:40:32;7.90;99.90
27306;DHT22;14792;50.886;6.468;2023-01-09T14:47:52;7.90;99.90
27306;DHT22;14792;50.886;6.468;2023-01-09T14:53:28;7.70;99.90
27306;DHT22;14792;50.886;6.468;2023-01-09T14:56:29;7.60;99.90
27306;DHT22;14792;50.886;6.468;2023-01-09T14:59:30;7.50;99.90
27306;DHT22;14792;50.886;6.468;2023-01-09T15:02:33;7.50;99.90
27306;DHT22;14792;50.886;6.468;2023-01-09T15:05:33;7.50;99.90
27306;DHT22;14792;50.886;6.468;2023-01-09T15:08:35;7.50;99.90
27306;DHT22;14792;50.886;6.468;2023-01-09T15:11:36;7.40;99.90
27306;DHT22;14792;50.886;6.468;2023-01-09T15:14:39;7.40;99.90
27306;DHT22;14792;50.886;6.468;2023-01-09T15:17:40;7.40;99.90
27306;DHT22;14792;50.886;6.468;2023-01-09T15:20:41;7.40;99.90
27306;DHT22;14792;50.886;6.468;2023-01-09T15:23:43;7.40;99.90
27306;DHT22;14792;50.886;6.468;2023-01-09T15:26:50;7.40;99.90
27306;DHT22;14792;50.886;6.468;2023-01-09T15:29:46;7.30;99.90
27306;DHT22;14792;50.886;6.468;2023-01-09T15:32:48;7.30;99.90
27306;DHT22;14792;50.886;6.468;2023-01-09T15:35:49;7.30;99.90
27306;DHT22;14792;50.886;6.468;2023-01-09T15:38:51;7.30;99.90
27306;DHT22;14792;50.886;6.468;2023-01-09T15:41:53;7.30;99.90
27306;DHT22;14792;50.886;6.468;2023-01-09T15:45:19;7.30;99.90
27306;DHT22;14792;50.886;6.468;2023-01-09T15:48:26;7.30;99.90
27306;DHT22;14792;50.886;6.468;2023-01-09T15:51:27;7.30;99.90
27306;DHT22;14792;50.886;6.468;2023-01-09T15:54:29;7.30;99.90
27306;DHT22;14792;50.886;6.468;2023-01-09T15:57:30;7.40;99.90
27306;DHT22;14792;50.886;6.468;2023-01-09T16:00:33;7.30;99.90
27306;DHT22;14792;50.886;6.468;2023-01-09T16:03:36;7.30;99.90
27306;DHT22;14792;50.886;6.468;2023-01-09T16:06:41;7.20;99.90
27306;DHT22;14792;50.886;6.468;2023-01-09T16:09:44;7.20;99.90
27306;DHT22;14792;50.886;6.468;2023-01-09T16:12:46;7.10;99.90
27306;DHT22;14792;50.886;6.468;2023-01-09T16:15:47;7.10;99.90
27306;DHT22;14792;50.886;6.468;2023-01-09T16:18:49;7.10;99.90
27306;DHT22;14792;50.886;6.468;2023-01-09T16:21:55;7.10;99.90
27306;DHT22;14792;50.886;6.468;2023-01-09T16:24:52;7.10;99.90
27306;DHT22;14792;50.886;6.468;2023-01-09T16:28:23;7.00;99.90
27306;DHT22;14792;50.886;6.468;2023-01-09T16:31:29;7.10;99.90
27306;DHT22;14792;50.886;6.468;2023-01-09T16:34:32;7.00;99.90
27306;DHT22;14792;50.886;6.468;2023-01-09T16:37:32;7.00;99.90
27306;DHT22;14792;50.886;6.468;2023-01-09T16:40:33;7.00;99.90
27306;DHT22;14792;50.886;6.468;2023-01-09T16:43:35;7.00;99.90
27306;DHT22;14792;50.886;6.468;2023-01-09T16:46:37;7.00;99.90
27306;DHT22;14792;50.886;6.468;2023-01-09T16:49:38;6.90;99.90
27306;DHT22;14792;50.886;6.468;2023-01-09T16:52:40;6.90;99.90
27306;DHT22;14792;50.886;6.468;2023-01-09T16:55:42;6.90;99.90
27306;DHT22;14792;50.886;6.468;2023-01-09T16:58:43;6.90;99.90
27306;DHT22;14792;50.886;6.468;2023-01-09T17:01:45;6.90;99.90
27306;DHT22;14792;50.886;6.468;2023-01-09T17:04:46;6.90;99.90
27306;DHT22;14792;50.886;6.468;2023-01-09T17:07:48;6.90;99.90
27306;DHT22;14792;50.886;6.468;2023-01-09T17:10:50;6.90;99.90
27306;DHT22;14792;50.886;6.468;2023-01-09T17:13:51;6.90;99.90
27306;DHT22;14792;50.886;6.468;2023-01-09T17:16:52;6.90;99.90
27306;DHT22;14792;50.886;6.468;2023-01-09T17:19:54;6.90;99.90
27306;DHT22;14792;50.886;6.468;2023-01-09T17:22:56;6.90;99.90
27306;DHT22;14792;50.886;6.468;2023-01-09T17:25:57;6.90;99.90
27306;DHT22;14792;50.886;6.468;2023-01-09T17:29:17;6.90;99.90
27306;DHT22;14792;50.886;6.468;2023-01-09T17:32:18;6.90;99.90
27306;DHT22;14792;50.886;6.468;2023-01-09T17:35:20;6.90;99.90
27306;DHT22;14792;50.886;6.468;2023-01-09T17:38:21;7.00;99.90
27306;DHT22;14792;50.886;6.468;2023-01-09T17:41:24;7.00;99.90
27306;DHT22;14792;50.886;6.468;2023-01-09T17:44:25;7.00;99.90
27306;DHT22;14792;50.886;6.468;2023-01-09T17:47:26;6.90;99.90
27306;DHT22;14792;50.886;6.468;2023-01-09T17:50:28;6.90;99.90
27306;DHT22;14792;50.886;6.468;2023-01-09T17:53:29;6.90;99.90
27306;DHT22;14792;50.886;6.468;2023-01-09T17:56:32;6.90;99.90
27306;DHT22;14792;50.886;6.468;2023-01-09T17:59:33;6.90;99.90
27306;DHT22;14792;50.886;6.468;2023-01-09T18:02:34;6.90;99.90
27306;DHT22;14792;50.886;6.468;2023-01-09T18:05:36;6.90;99.90
27306;DHT22;14792;50.886;6.468;2023-01-09T18:08:38;6.90;99.90
27306;DHT22;14792;50.886;6.468;2023-01-09T18:11:39;7.00;99.90
27306;DHT22;14792;50.886;6.468;2023-01-09T18:14:41;7.00;99.90
27306;DHT22;14792;50.886;6.468;2023-01-09T18:17:42;7.00;99.90
27306;DHT22;14792;50.886;6.468;2023-01-09T18:20:44;7.10;99.90
27306;DHT22;14792;50.886;6.468;2023-01-09T18:23:45;7.10;99.90
27306;DHT22;14792;50.886;6.468;2023-01-09T18:26:47;7.00;99.90
27306;DHT22;14792;50.886;6.468;2023-01-09T18:29:49;7.00;99.90
27306;DHT22;14792;50.886;6.468;2023-01-09T18:32:50;6.90;99.90
27306;DHT22;14792;50.886;6.468;2023-01-09T18:35:52;6.90;99.90
27306;DHT22;14792;50.886;6.468;2023-01-09T18:38:54;6.90;99.90
27306;DHT22;14792;50.886;6.468;2023-01-09T18:41:55;6.90;99.90
27306;DHT22;14792;50.886;6.468;2023-01-09T18:44:56;6.90;99.90
27306;DHT22;14792;50.886;6.468;2023-01-09T18:47:58;6.90;99.90
27306;DHT22;14792;50.886;6.468;2023-01-09T18:51:04;6.90;99.90
27306;DHT22;14792;50.886;6.468;2023-01-09T18:54:04;6.90;99.90
27306;DHT22;14792;50.886;6.468;2023-01-09T18:57:06;7.00;99.90
27306;DHT22;14792;50.886;6.468;2023-01-09T19:00:07;7.00;99.90
27306;DHT22;14792;50.886;6.468;2023-01-09T19:03:12;7.00;99.90
27306;DHT22;14792;50.886;6.468;2023-01-09T19:06:10;7.00;99.90
27306;DHT22;14792;50.886;6.468;2023-01-09T19:09:12;7.00;99.90
27306;DHT22;14792;50.886;6.468;2023-01-09T19:12:14;7.00;99.90
27306;DHT22;14792;50.886;6.468;2023-01-09T19:15:15;7.00;99.90
27306;DHT22;14792;50.886;6.468;2023-01-09T19:18:17;7.00;99.90
27306;DHT22;14792;50.886;6.468;2023-01-09T19:21:19;7.00;99.90
27306;DHT22;14792;50.886;6.468;2023-01-09T19:24:20;7.00;99.90
27306;DHT22;14792;50.886;6.468;2023-01-09T19:27:21;7.00;99.90
27306;DHT22;14792;50.886;6.468;2023-01-09T19:30:23;7.00;99.90
27306;DHT22;14792;50.886;6.468;2023-01-09T19:33:25;6.90;99.90
27306;DHT22;14792;50.886;6.468;2023-01-09T19:36:26;6.80;99.90
27306;DHT22;14792;50.886;6.468;2023-01-09T19:39:28;6.80;99.90
27306;DHT22;14792;50.886;6.468;2023-01-09T19:42:29;6.80;99.90
27306;DHT22;14792;50.886;6.468;2023-01-09T19:45:31;6.80;99.90
27306;DHT22;14792;50.886;6.468;2023-01-09T19:48:33;6.80;99.90
27306;DHT22;14792;50.886;6.468;2023-01-09T19:51:35;6.70;99.90
27306;DHT22;14792;50.886;6.468;2023-01-09T19:54:36;6.70;99.90
27306;DHT22;14792;50.886;6.468;2023-01-09T19:57:38;6.60;99.90
27306;DHT22;14792;50.886;6.468;2023-01-09T20:00:39;6.60;99.90
27306;DHT22;14792;50.886;6.468;2023-01-09T20:03:41;6.60;99.90
27306;DHT22;14792;50.886;6.468;2023-01-09T20:06:44;6.60;99.90
27306;DHT22;14792;50.886;6.468;2023-01-09T20:09:44;6.60;99.90
27306;DHT22;14792;50.886;6.468;2023-01-09T20:12:46;6.60;99.90
27306;DHT22;14792;50.886;6.468;2023-01-09T20:15:47;6.50;99.90
27306;DHT22;14792;50.886;6.468;2023-01-09T20:18:49;6.50;99.90
27306;DHT22;14792;50.886;6.468;2023-01-09T20:21:50;6.40;99.90
27306;DHT22;14792;50.886;6.468;2023-01-09T20:24:52;6.30;99.90
27306;DHT22;14792;50.886;6.468;2023-01-09T20:27:54;6.30;99.90
27306;DHT22;14792;50.886;6.468;2023-01-09T20:30:55;6.20;99.90
27306;DHT22;14792;50.886;6.468;2023-01-09T20:33:57;6.20;99.90
27306;DHT22;14792;50.886;6.468;2023-01-09T20:37:01;6.20;99.90
27306;DHT22;14792;50.886;6.468;2023-01-09T20:40:02;6.20;99.90
27306;DHT22;14792;50.886;6.468;2023-01-09T20:43:04;6.20;99.90
27306;DHT22;14792;50.886;6.468;2023-01-09T20:46:06;6.20;99.90
27306;DHT22;14792;50.886;6.468;2023-01-09T20:49:09;6.20;99.90
27306;DHT22;14792;50.886;6.468;2023-01-09T20:52:09;6.20;99.90
27306;DHT22;14792;50.886;6.468;2023-01-09T20:55:10;6.20;99.90
27306;DHT22;14792;50.886;6.468;2023-01-09T20:58:12;6.20;99.90
27306;DHT22;14792;50.886;6.468;2023-01-09T21:01:13;6.20;99.90
27306;DHT22;14792;50.886;6.468;2023-01-09T21:04:15;6.20;99.90
27306;DHT22;14792;50.886;6.468;2023-01-09T21:07:17;6.30;99.90
27306;DHT22;14792;50.886;6.468;2023-01-09T21:10:19;6.20;99.90
27306;DHT22;14792;50.886;6.468;2023-01-09T21:13:20;6.20;99.90
27306;DHT22;14792;50.886;6.468;2023-01-09T21:16:22;6.20;99.90
27306;DHT22;14792;50.886;6.468;2023-01-09T21:19:24;6.20;99.90